This is the latest recevied weather packets stored in our database for station/object KE5VT. If no packets are shown the sender has not sent any weather packets the latest 10 day(s).
| Time | Temp. | Humidity | Pressure | Rain* | Wind** | Luminosity | Snow |
|---|---|---|---|---|---|---|---|
| 1787522969 | 31.67° C | 47% | 1010.2 hPa | 0 mm | - | 182 W/m² | - |
| 1787522666 | 31.11° C | 49% | 1010 hPa | 0 mm | - | 199 W/m² | - |
| 1787522365 | 31.67° C | 48% | 1010.1 hPa | 0 mm | - | 208 W/m² | - |
| 1787522061 | 31.67° C | 48% | 1010.1 hPa | 0 mm | - | 222 W/m² | - |
| 1787521760 | 32.22° C | 46% | 1010.2 hPa | 0 mm | - | 237 W/m² | - |
| 1787521460 | 31.67° C | 47% | 1010.1 hPa | 0 mm | - | 253 W/m² | - |
| 1787521160 | 32.78° C | 44% | 1010 hPa | 0 mm | - | 268 W/m² | - |
| 1787520855 | 32.78° C | 43% | 1010 hPa | 0 mm | - | 285 W/m² | - |
| 1787520550 | 33.33° C | 43% | 1010 hPa | 0 mm | - | 306 W/m² | - |
| 1787520246 | 33.33° C | 43% | 1010.2 hPa | 0 mm | - | 320 W/m² | - |
| 1787519941 | 31.67° C | 45% | 1010 hPa | 0 mm | - | 330 W/m² | - |
| 1787519637 | 32.22° C | 43% | 1010.1 hPa | 0 mm | - | 338 W/m² | - |
| 1787519336 | 31.11° C | 46% | 1010 hPa | 0 mm | - | 355 W/m² | - |
| 1787519032 | 31.67° C | 46% | 1010 hPa | 0 mm | - | 361 W/m² | - |
| 1787518727 | 32.22° C | 46% | 1010.1 hPa | 0 mm | - | 399 W/m² | - |
| 1787518422 | 33.33° C | 43% | 1010.1 hPa | 0 mm | - | 406 W/m² | - |
| 1787518117 | 31.67° C | 43% | 1010.1 hPa | 0 mm | - | 425 W/m² | - |
| 1787517813 | 32.22° C | 43% | 1010 hPa | 0 mm | - | 438 W/m² | - |
| 1787517510 | 31.67° C | 45% | 1010.2 hPa | 0 mm | - | 72 W/m² | - |
| 1787517206 | 31.67° C | 43% | 1010.4 hPa | 0 mm | - | 72 W/m² | - |
| 1787516904 | 31.67° C | 47% | 1010.4 hPa | 0 mm | - | 88 W/m² | - |
| 1787516600 | 30.56° C | 48% | 1010.3 hPa | 0 mm | - | 102 W/m² | - |
| 1787516294 | 31.11° C | 46% | 1010.4 hPa | 0 mm | - | 76 W/m² | - |
| 1787515989 | 31.67° C | 46% | 1010.6 hPa | 0 mm | - | 89 W/m² | - |
| 1787515685 | 32.22° C | 47% | 1010.5 hPa | 0 mm | - | 444 W/m² | - |
* Rain latest hour (hover to see other rain measurements)
** Current wind speed in m/s (hover to see current wind gust speed)